Time;durP1;ratioP1;P1;durP2;ratioP2;P2;SDS_P1;SDS_P2;PMS_P1;PMS_P2;Temp;Humidity;BMP_temperature;BMP_pressure;BME280_temperature;BME280_humidity;BME280_pressure;Samples;Min_cycle;Max_cycle;Signal;HPM_P1;HPM_P2
2022/08/06 00:00:22;;;;;;;;;;;16.30;99.90;;;;;;4952218;28;19917;-88
2022/08/06 00:02:48;;;;;;;;;;;16.40;99.90;;;;;;4933022;29;20634;-86
2022/08/06 00:05:14;;;;;;;;;;;16.30;99.90;;;;;;4917628;29;20468;-85
2022/08/06 00:07:39;;;;;;;;;;;16.40;99.90;;;;;;4951947;29;19910;-86
2022/08/06 00:10:05;;;;;;;;;;;16.40;99.90;;;;;;4936143;29;20017;-85
2022/08/06 00:12:32;;;;;;;;;;;16.40;99.90;;;;;;4916898;29;19921;-85
2022/08/06 00:14:58;;;;;;;;;;;16.40;99.90;;;;;;4932079;29;20429;-85
2022/08/06 00:17:25;;;;;;;;;;;16.30;99.90;;;;;;4946300;28;20310;-86
2022/08/06 00:19:50;;;;;;;;;;;16.30;99.90;;;;;;4948225;28;19914;-86
2022/08/06 00:22:16;;;;;;;;;;;16.30;99.90;;;;;;4923420;29;19966;-86
2022/08/06 00:24:42;;;;;;;;;;;16.30;99.90;;;;;;4934501;28;19956;-85
2022/08/06 00:27:07;;;;;;;;;;;16.30;99.90;;;;;;4935729;28;20613;-86
2022/08/06 00:29:33;;;;;;;;;;;16.30;99.90;;;;;;4932087;29;20037;-87
2022/08/06 00:31:59;;;;;;;;;;;16.30;99.90;;;;;;4953914;28;19915;-86
2022/08/06 00:34:25;;;;;;;;;;;16.40;99.90;;;;;;4931269;29;20009;-87
2022/08/06 00:36:50;;;;;;;;;;;16.30;99.90;;;;;;4945497;28;19910;-87
2022/08/06 00:39:16;;;;;;;;;;;16.40;99.90;;;;;;4935431;29;19918;-87
2022/08/06 00:41:42;;;;;;;;;;;16.30;99.90;;;;;;4943090;29;20416;-87
2022/08/06 00:44:08;;;;;;;;;;;16.30;99.90;;;;;;4947696;28;19911;-87
2022/08/06 00:46:34;;;;;;;;;;;16.30;99.90;;;;;;4939964;29;19921;-86
2022/08/06 00:48:59;;;;;;;;;;;16.40;99.90;;;;;;4931980;28;20017;-87
2022/08/06 00:51:25;;;;;;;;;;;16.40;99.90;;;;;;4939294;28;19914;-87
2022/08/06 00:53:51;;;;;;;;;;;16.40;99.90;;;;;;4931495;29;19915;-87
2022/08/06 00:56:17;;;;;;;;;;;16.40;99.90;;;;;;4950599;29;19910;-85
2022/08/06 00:58:42;;;;;;;;;;;16.40;99.90;;;;;;4951887;28;20060;-86
2022/08/06 01:01:09;;;;;;;;;;;16.40;99.90;;;;;;4957441;28;19954;-86
2022/08/06 01:03:34;;;;;;;;;;;16.40;99.90;;;;;;4931530;28;19951;-87
2022/08/06 01:06:00;;;;;;;;;;;16.40;99.90;;;;;;4945845;28;19990;-86
2022/08/06 01:08:25;;;;;;;;;;;16.40;99.90;;;;;;4946145;28;19915;-85
2022/08/06 01:10:51;;;;;;;;;;;16.40;99.90;;;;;;4944856;28;20001;-85
2022/08/06 01:13:17;;;;;;;;;;;16.40;99.90;;;;;;4934397;29;19917;-85
2022/08/06 01:15:45;;;;;;;;;;;16.40;99.90;;;;;;4935197;29;19957;-87
2022/08/06 01:18:13;;;;;;;;;;;16.30;99.90;;;;;;4964702;28;19918;-86
2022/08/06 01:21:00;;;;;;;;;;;16.30;99.90;;;;;;4935534;29;20391;-87
2022/08/06 01:23:26;;;;;;;;;;;16.30;99.90;;;;;;4934665;28;19917;-85
2022/08/06 01:25:54;;;;;;;;;;;16.30;99.90;;;;;;4936475;29;20000;-86
2022/08/06 01:28:24;;;;;;;;;;;16.30;99.90;;;;;;4950885;28;19917;-85
2022/08/06 01:30:52;;;;;;;;;;;16.30;99.90;;;;;;4945403;28;20485;-86
2022/08/06 01:33:26;;;;;;;;;;;16.30;99.90;;;;;;4946814;28;19911;-87
2022/08/06 01:35:54;;;;;;;;;;;16.30;99.90;;;;;;4944372;28;19914;-85
2022/08/06 01:38:37;;;;;;;;;;;16.30;99.90;;;;;;4947335;28;19917;-88
2022/08/06 01:41:05;;;;;;;;;;;16.20;99.90;;;;;;4937958;29;19910;-87
2022/08/06 01:43:32;;;;;;;;;;;16.20;99.90;;;;;;4930602;29;19917;-87
2022/08/06 01:45:58;;;;;;;;;;;16.20;99.90;;;;;;4953204;28;19938;-86
2022/08/06 01:48:25;;;;;;;;;;;16.20;99.90;;;;;;4930729;29;20381;-87
2022/08/06 01:50:52;;;;;;;;;;;16.20;99.90;;;;;;4939238;28;19921;-86
2022/08/06 01:53:44;;;;;;;;;;;16.30;99.90;;;;;;4946804;28;19911;-87
2022/08/06 01:56:10;;;;;;;;;;;16.30;99.90;;;;;;4948960;29;19911;-87
2022/08/06 01:58:38;;;;;;;;;;;16.20;99.90;;;;;;4924323;28;20338;-87
2022/08/06 02:01:06;;;;;;;;;;;16.30;99.90;;;;;;4934076;28;20159;-86
2022/08/06 02:03:52;;;;;;;;;;;16.20;99.90;;;;;;4949904;28;19910;-86
2022/08/06 02:06:21;;;;;;;;;;;16.20;99.90;;;;;;4931044;28;19946;-87
2022/08/06 02:08:47;;;;;;;;;;;16.20;99.90;;;;;;4928604;28;19930;-86
2022/08/06 02:11:12;;;;;;;;;;;16.20;99.90;;;;;;4941187;28;20187;-85
2022/08/06 02:13:40;;;;;;;;;;;16.20;99.90;;;;;;4930661;29;19979;-86
2022/08/06 02:16:06;;;;;;;;;;;16.10;99.90;;;;;;4938327;28;19911;-85
2022/08/06 02:18:35;;;;;;;;;;;16.10;99.90;;;;;;4914871;29;19922;-86
2022/08/06 02:21:02;;;;;;;;;;;16.10;99.90;;;;;;4948181;28;19917;-87
2022/08/06 02:23:28;;;;;;;;;;;16.10;99.90;;;;;;4914655;29;19914;-86
2022/08/06 02:25:54;;;;;;;;;;;16.00;99.90;;;;;;4952216;28;19910;-85
2022/08/06 02:28:21;;;;;;;;;;;16.10;99.90;;;;;;4934042;29;19921;-86
2022/08/06 02:30:48;;;;;;;;;;;16.00;99.90;;;;;;4934065;29;19945;-86
2022/08/06 02:33:14;;;;;;;;;;;16.00;99.90;;;;;;4933204;29;19914;-86
2022/08/06 02:35:49;;;;;;;;;;;16.00;99.90;;;;;;4934007;29;19911;-86
2022/08/06 02:38:19;;;;;;;;;;;16.00;99.90;;;;;;4949515;28;19910;-87
2022/08/06 02:40:49;;;;;;;;;;;16.00;99.90;;;;;;4946397;28;20005;-86
2022/08/06 02:43:47;;;;;;;;;;;16.00;99.90;;;;;;4930270;29;19933;-87
2022/08/06 02:46:16;;;;;;;;;;;16.00;99.90;;;;;;4911159;29;19996;-86
2022/08/06 02:48:48;;;;;;;;;;;16.00;99.90;;;;;;4933048;28;19910;-86
2022/08/06 02:51:17;;;;;;;;;;;16.00;99.90;;;;;;4942826;28;19914;-85
2022/08/06 02:53:46;;;;;;;;;;;16.00;99.90;;;;;;4923386;29;19917;-86
2022/08/06 02:56:13;;;;;;;;;;;16.00;99.90;;;;;;4944644;29;19906;-86
2022/08/06 02:58:42;;;;;;;;;;;16.00;99.90;;;;;;4918542;29;19981;-86
2022/08/06 03:01:09;;;;;;;;;;;16.00;99.90;;;;;;4939375;29;19910;-86
2022/08/06 03:03:36;;;;;;;;;;;16.00;99.90;;;;;;4954076;28;19914;-86
2022/08/06 03:06:03;;;;;;;;;;;16.00;99.90;;;;;;4945941;29;20358;-87
2022/08/06 03:08:29;;;;;;;;;;;16.00;99.90;;;;;;4933574;29;19921;-85
2022/08/06 03:10:55;;;;;;;;;;;16.00;99.90;;;;;;4928634;28;19997;-85
2022/08/06 03:13:21;;;;;;;;;;;16.00;99.90;;;;;;4949077;28;19915;-86
2022/08/06 03:15:48;;;;;;;;;;;16.00;99.90;;;;;;4932383;28;19964;-85
2022/08/06 03:18:15;;;;;;;;;;;16.00;99.90;;;;;;4921061;29;19910;-86
2022/08/06 03:20:42;;;;;;;;;;;16.00;99.90;;;;;;4946959;28;19914;-86
2022/08/06 03:23:08;;;;;;;;;;;15.90;99.90;;;;;;4937275;29;19990;-85
2022/08/06 03:25:36;;;;;;;;;;;15.90;99.90;;;;;;4951600;28;19922;-88
2022/08/06 03:28:03;;;;;;;;;;;15.90;99.90;;;;;;4944688;28;19954;-86
2022/08/06 03:30:29;;;;;;;;;;;15.80;99.90;;;;;;4943787;29;19922;-88
2022/08/06 03:32:56;;;;;;;;;;;15.80;99.90;;;;;;4952215;29;20609;-88
2022/08/06 03:35:22;;;;;;;;;;;15.80;99.90;;;;;;4920266;29;19916;-85
2022/08/06 03:37:49;;;;;;;;;;;15.70;99.90;;;;;;4952446;28;19962;-86
2022/08/06 03:40:16;;;;;;;;;;;15.70;99.90;;;;;;4934123;29;19950;-87
2022/08/06 03:42:42;;;;;;;;;;;15.70;99.90;;;;;;4936083;29;19925;-85
2022/08/06 03:45:08;;;;;;;;;;;15.60;99.90;;;;;;4935578;29;19910;-86
2022/08/06 03:47:38;;;;;;;;;;;15.60;99.90;;;;;;4932930;29;19910;-86
2022/08/06 03:50:08;;;;;;;;;;;15.60;99.90;;;;;;4933155;29;19914;-87
2022/08/06 03:52:38;;;;;;;;;;;15.50;99.90;;;;;;4949187;28;20005;-87
2022/08/06 03:55:04;;;;;;;;;;;15.50;99.90;;;;;;4948873;28;20362;-87
2022/08/06 03:57:39;;;;;;;;;;;15.40;99.90;;;;;;4963892;28;19910;-87
2022/08/06 04:00:07;;;;;;;;;;;15.40;99.90;;;;;;4948458;29;20350;-87
2022/08/06 04:02:40;;;;;;;;;;;15.40;99.90;;;;;;4935809;29;19915;-86
2022/08/06 04:05:06;;;;;;;;;;;15.40;99.90;;;;;;4951703;28;20373;-87
2022/08/06 04:07:32;;;;;;;;;;;15.30;99.90;;;;;;4940071;28;19914;-86
2022/08/06 04:09:59;;;;;;;;;;;15.30;99.90;;;;;;4932770;29;19969;-87
2022/08/06 04:12:24;;;;;;;;;;;15.30;99.90;;;;;;4961686;28;19955;-87
2022/08/06 04:14:50;;;;;;;;;;;15.30;99.90;;;;;;4947188;28;19945;-86
2022/08/06 04:17:16;;;;;;;;;;;15.30;99.90;;;;;;4949048;29;19910;-86
2022/08/06 04:19:43;;;;;;;;;;;15.30;99.90;;;;;;4935804;29;19917;-86
2022/08/06 04:22:13;;;;;;;;;;;15.30;99.90;;;;;;4936286;29;19950;-86
2022/08/06 04:24:39;;;;;;;;;;;15.20;99.90;;;;;;4950801;28;19965;-89
2022/08/06 04:27:06;;;;;;;;;;;15.20;99.90;;;;;;4962314;28;19918;-86
2022/08/06 04:29:33;;;;;;;;;;;15.20;99.90;;;;;;4942112;29;19910;-87
2022/08/06 04:31:59;;;;;;;;;;;15.20;99.90;;;;;;4935402;29;20480;-86
2022/08/06 04:34:26;;;;;;;;;;;15.20;99.90;;;;;;4947360;28;19910;-87
2022/08/06 04:36:52;;;;;;;;;;;15.20;99.90;;;;;;4948065;28;19918;-86
2022/08/06 04:39:18;;;;;;;;;;;15.20;99.90;;;;;;4932257;29;19910;-85
2022/08/06 04:41:44;;;;;;;;;;;15.20;99.90;;;;;;4941343;29;20362;-86
2022/08/06 04:44:10;;;;;;;;;;;15.20;99.90;;;;;;4947457;28;19922;-86
2022/08/06 04:46:36;;;;;;;;;;;15.20;99.90;;;;;;4931785;28;20415;-86
2022/08/06 04:49:02;;;;;;;;;;;15.20;99.90;;;;;;4933927;29;19969;-84
2022/08/06 04:51:28;;;;;;;;;;;15.20;99.90;;;;;;4935072;29;20044;-86
2022/08/06 04:53:54;;;;;;;;;;;15.20;99.90;;;;;;4950800;28;19918;-86
2022/08/06 04:56:19;;;;;;;;;;;15.20;99.90;;;;;;4926737;28;19918;-87
2022/08/06 04:58:45;;;;;;;;;;;15.20;99.90;;;;;;4934878;29;19962;-86
2022/08/06 05:01:11;;;;;;;;;;;15.20;99.90;;;;;;4939965;29;19957;-86
2022/08/06 05:03:37;;;;;;;;;;;15.20;99.90;;;;;;4949595;28;19917;-86
2022/08/06 05:06:03;;;;;;;;;;;15.20;99.90;;;;;;4938404;29;20432;-87
2022/08/06 05:08:29;;;;;;;;;;;15.20;99.90;;;;;;4934399;29;20671;-86
2022/08/06 05:11:04;;;;;;;;;;;15.20;99.90;;;;;;4937387;29;19966;-88
2022/08/06 05:13:32;;;;;;;;;;;15.20;99.90;;;;;;4938569;28;20420;-86
2022/08/06 05:16:00;;;;;;;;;;;15.20;99.90;;;;;;4943593;28;19932;-86
2022/08/06 05:18:30;;;;;;;;;;;15.20;99.90;;;;;;4947510;28;19949;-87
2022/08/06 05:20:56;;;;;;;;;;;15.20;99.90;;;;;;4933591;29;19911;-87
2022/08/06 05:23:41;;;;;;;;;;;15.20;99.90;;;;;;4949698;28;19906;-86
2022/08/06 05:26:07;;;;;;;;;;;15.10;99.90;;;;;;4936256;28;19917;-88
2022/08/06 05:28:33;;;;;;;;;;;15.20;99.90;;;;;;4947781;28;20369;-86
2022/08/06 05:30:59;;;;;;;;;;;15.20;99.90;;;;;;4950245;28;19976;-87
2022/08/06 05:33:25;;;;;;;;;;;15.20;99.90;;;;;;4934971;29;19910;-87
2022/08/06 05:35:51;;;;;;;;;;;15.30;99.90;;;;;;4936360;29;19918;-86
2022/08/06 05:38:17;;;;;;;;;;;15.30;99.90;;;;;;4925620;28;19911;-86
2022/08/06 05:40:42;;;;;;;;;;;15.40;99.90;;;;;;4919658;28;20333;-86
2022/08/06 05:43:08;;;;;;;;;;;15.50;99.90;;;;;;4927943;28;20035;-89
2022/08/06 05:45:34;;;;;;;;;;;15.80;99.90;;;;;;4918787;29;20001;-85
2022/08/06 05:48:02;;;;;;;;;;;16.10;99.90;;;;;;4934201;29;20081;-86
2022/08/06 05:50:29;;;;;;;;;;;16.30;99.90;;;;;;4934520;29;19922;-87
2022/08/06 05:52:57;;;;;;;;;;;16.50;99.90;;;;;;4950094;29;19910;-87
2022/08/06 05:55:45;;;;;;;;;;;16.60;99.90;;;;;;4949922;28;19907;-87
2022/08/06 05:58:13;;;;;;;;;;;16.70;99.90;;;;;;4934184;29;19910;-86
2022/08/06 06:00:40;;;;;;;;;;;16.70;99.90;;;;;;4934705;29;19997;-88
2022/08/06 06:03:07;;;;;;;;;;;16.80;99.90;;;;;;4959867;28;20017;-88
2022/08/06 06:05:34;;;;;;;;;;;16.70;99.90;;;;;;4949746;28;19910;-86
2022/08/06 06:08:00;;;;;;;;;;;16.70;99.90;;;;;;4934303;29;19910;-85
2022/08/06 06:10:26;;;;;;;;;;;16.70;99.90;;;;;;4933707;29;20001;-87
2022/08/06 06:12:52;;;;;;;;;;;16.70;99.90;;;;;;4930477;29;19966;-87
2022/08/06 06:15:19;;;;;;;;;;;16.80;99.90;;;;;;4916394;29;19910;-88
2022/08/06 06:18:00;;;;;;;;;;;16.90;99.90;;;;;;4934398;29;19973;-86
2022/08/06 06:20:26;;;;;;;;;;;16.90;99.80;;;;;;4933024;29;19919;-86
2022/08/06 06:22:56;;;;;;;;;;;16.90;99.90;;;;;;4930358;29;20601;-86
2022/08/06 06:25:25;;;;;;;;;;;17.00;99.90;;;;;;4931821;29;19918;-87
2022/08/06 06:27:54;;;;;;;;;;;17.20;99.90;;;;;;4934051;29;19911;-84
2022/08/06 06:30:26;;;;;;;;;;;17.40;98.40;;;;;;4949313;28;19924;-87
2022/08/06 06:32:55;;;;;;;;;;;17.60;99.10;;;;;;4949606;28;19917;-87
2022/08/06 06:35:25;;;;;;;;;;;17.90;98.00;;;;;;4933173;29;19927;-86
2022/08/06 06:38:09;;;;;;;;;;;18.30;97.00;;;;;;4953328;28;19958;-87
2022/08/06 06:40:55;;;;;;;;;;;18.60;95.80;;;;;;4952628;28;19929;-87
2022/08/06 06:43:29;;;;;;;;;;;19.10;95.50;;;;;;4943865;28;20353;-86
2022/08/06 06:46:00;;;;;;;;;;;19.60;92.80;;;;;;4952531;28;19910;-87
2022/08/06 06:48:38;;;;;;;;;;;20.10;92.30;;;;;;4938080;28;19921;-87
2022/08/06 06:51:06;;;;;;;;;;;20.40;91.50;;;;;;4942443;28;19918;-88
2022/08/06 06:53:34;;;;;;;;;;;20.80;87.90;;;;;;4949782;28;19910;-87
2022/08/06 06:56:00;;;;;;;;;;;21.10;86.20;;;;;;4944351;28;19918;-85
2022/08/06 06:58:45;;;;;;;;;;;21.40;82.90;;;;;;4953236;28;20307;-86
2022/08/06 07:01:11;;;;;;;;;;;21.50;80.00;;;;;;4939403;28;19911;-87
2022/08/06 07:03:38;;;;;;;;;;;21.70;78.00;;;;;;4949309;28;19917;-87
2022/08/06 11:29:01;;;;;;;;;;;20.80;62.20;;;;;;4933896;29;20352;-86
2022/08/06 11:31:32;;;;;;;;;;;20.90;62.20;;;;;;4952246;28;19973;-86
2022/08/06 11:33:59;;;;;;;;;;;21.00;60.70;;;;;;4931671;29;20012;-85
2022/08/06 11:36:25;;;;;;;;;;;21.10;59.60;;;;;;4949815;28;19957;-85
2022/08/06 11:38:54;;;;;;;;;;;21.10;57.90;;;;;;4933444;28;20357;-85
2022/08/06 11:41:25;;;;;;;;;;;21.10;58.20;;;;;;4941385;28;19946;-84
2022/08/06 11:43:51;;;;;;;;;;;21.00;59.50;;;;;;4948463;28;20001;-85
2022/08/06 11:46:22;;;;;;;;;;;21.00;60.10;;;;;;4938456;29;19998;-84
2022/08/06 11:49:03;;;;;;;;;;;21.00;60.30;;;;;;4950616;28;20621;-84
2022/08/06 11:52:05;;;;;;;;;;;21.00;58.80;;;;;;4940603;28;19915;-85
2022/08/06 11:54:33;;;;;;;;;;;21.10;61.10;;;;;;4933519;29;19910;-85
2022/08/06 11:57:04;;;;;;;;;;;21.20;60.30;;;;;;4950357;29;20539;-84
2022/08/06 11:59:34;;;;;;;;;;;21.40;58.10;;;;;;4952094;28;20013;-84
2022/08/06 12:02:01;;;;;;;;;;;21.50;58.40;;;;;;4936328;29;19933;-85
2022/08/06 12:04:36;;;;;;;;;;;21.60;58.60;;;;;;4931757;29;19918;-85
2022/08/06 12:07:21;;;;;;;;;;;21.60;56.30;;;;;;4944124;28;20450;-85
2022/08/06 12:10:07;;;;;;;;;;;21.70;58.90;;;;;;4928387;29;20484;-85
2022/08/06 12:12:33;;;;;;;;;;;21.70;57.50;;;;;;4951223;28;19918;-85
2022/08/06 12:14:59;;;;;;;;;;;21.60;57.40;;;;;;4951175;28;19918;-85
2022/08/06 12:17:26;;;;;;;;;;;21.60;57.70;;;;;;4932736;29;20006;-85
2022/08/06 12:19:54;;;;;;;;;;;21.70;59.10;;;;;;4933205;28;20315;-87
2022/08/06 12:22:22;;;;;;;;;;;21.70;58.20;;;;;;4953226;28;19921;-86
2022/08/06 12:24:49;;;;;;;;;;;21.90;58.70;;;;;;4914241;29;19915;-85
2022/08/06 12:27:15;;;;;;;;;;;22.10;58.10;;;;;;4936079;28;20009;-86
2022/08/06 12:29:42;;;;;;;;;;;22.20;55.70;;;;;;4944627;28;20258;-85
2022/08/06 12:32:24;;;;;;;;;;;22.20;56.10;;;;;;4932314;29;19914;-85
2022/08/06 12:34:51;;;;;;;;;;;22.30;56.60;;;;;;4934393;29;20316;-85
2022/08/06 12:37:17;;;;;;;;;;;22.40;56.90;;;;;;4961726;28;19915;-85
2022/08/06 12:42:28;;;;;;;;;;;22.50;55.90;;;;;;4951187;28;20284;-85
2022/08/06 12:44:54;;;;;;;;;;;22.60;53.60;;;;;;4934278;29;19911;-84
2022/08/06 12:47:20;;;;;;;;;;;22.70;53.30;;;;;;4915079;29;20577;-84
2022/08/06 12:49:46;;;;;;;;;;;22.60;52.90;;;;;;4932447;29;19921;-85
2022/08/06 12:52:12;;;;;;;;;;;22.50;55.60;;;;;;4935295;29;20555;-84
2022/08/06 12:54:38;;;;;;;;;;;22.30;55.30;;;;;;4930583;29;19922;-84
2022/08/06 12:57:04;;;;;;;;;;;22.40;56.80;;;;;;4915927;28;19915;-83
2022/08/06 12:59:30;;;;;;;;;;;22.60;55.40;;;;;;4931779;28;19914;-85
2022/08/06 13:01:56;;;;;;;;;;;22.80;53.00;;;;;;4935454;28;19918;-84
2022/08/06 13:04:23;;;;;;;;;;;23.00;55.50;;;;;;4934133;28;19915;-85
2022/08/06 13:06:49;;;;;;;;;;;23.20;53.60;;;;;;4943002;28;19914;-86
2022/08/06 13:09:15;;;;;;;;;;;23.30;53.00;;;;;;4915899;29;20580;-84
2022/08/06 13:11:41;;;;;;;;;;;23.50;50.60;;;;;;4943957;29;19919;-84
2022/08/06 13:14:08;;;;;;;;;;;23.50;52.70;;;;;;4941326;29;20271;-85
2022/08/06 13:16:37;;;;;;;;;;;23.70;52.70;;;;;;4944672;29;19910;-86
2022/08/06 13:19:07;;;;;;;;;;;23.90;51.40;;;;;;4934134;28;20457;-84
2022/08/06 13:21:35;;;;;;;;;;;24.10;52.30;;;;;;4931420;28;19977;-85
2022/08/06 13:24:02;;;;;;;;;;;24.40;49.90;;;;;;4930823;29;19911;-85
2022/08/06 13:26:29;;;;;;;;;;;24.30;48.60;;;;;;4952406;28;19914;-85
2022/08/06 13:29:08;;;;;;;;;;;24.20;50.10;;;;;;4950347;28;19966;-85
2022/08/06 13:31:34;;;;;;;;;;;24.10;49.80;;;;;;4958302;28;19921;-84
2022/08/06 13:34:00;;;;;;;;;;;23.70;49.30;;;;;;4933912;29;19910;-84
2022/08/06 13:36:27;;;;;;;;;;;23.60;50.60;;;;;;4930597;29;19918;-84
2022/08/06 13:38:53;;;;;;;;;;;23.60;48.70;;;;;;4934916;29;19918;-84
2022/08/06 13:41:26;;;;;;;;;;;23.50;49.80;;;;;;4927714;29;19910;-86
2022/08/06 13:43:52;;;;;;;;;;;23.40;51.90;;;;;;4930876;29;19976;-84
2022/08/06 13:46:18;;;;;;;;;;;23.30;50.80;;;;;;4920140;29;20413;-84
2022/08/06 13:48:44;;;;;;;;;;;23.30;51.60;;;;;;4931008;29;19962;-84
2022/08/06 13:51:10;;;;;;;;;;;23.30;49.80;;;;;;4939174;29;19918;-84
2022/08/06 13:53:36;;;;;;;;;;;23.20;51.20;;;;;;4944148;28;19911;-83
2022/08/06 13:56:02;;;;;;;;;;;23.10;50.30;;;;;;4938130;28;20575;-83
2022/08/06 13:58:28;;;;;;;;;;;23.10;52.40;;;;;;4946898;28;19911;-84
2022/08/06 14:00:53;;;;;;;;;;;23.20;52.50;;;;;;4933078;29;20370;-84
2022/08/06 14:03:19;;;;;;;;;;;23.20;50.50;;;;;;4933522;29;20162;-85
2022/08/06 14:05:45;;;;;;;;;;;23.20;48.90;;;;;;4944114;28;19911;-85
2022/08/06 14:08:11;;;;;;;;;;;23.20;49.90;;;;;;4930743;29;20474;-85
2022/08/06 14:10:36;;;;;;;;;;;23.00;50.40;;;;;;4930611;29;19994;-87
2022/08/06 14:13:18;;;;;;;;;;;22.90;49.80;;;;;;4930320;29;20018;-85
2022/08/06 14:15:44;;;;;;;;;;;22.80;52.30;;;;;;4935013;28;19917;-85
2022/08/06 14:18:10;;;;;;;;;;;22.70;51.10;;;;;;4950783;28;19969;-85
2022/08/06 14:20:36;;;;;;;;;;;22.70;51.00;;;;;;4949225;28;19915;-85
2022/08/06 14:23:02;;;;;;;;;;;22.80;51.90;;;;;;4930297;29;19911;-85
2022/08/06 14:25:27;;;;;;;;;;;23.00;52.10;;;;;;4930260;29;19922;-84
2022/08/06 14:27:53;;;;;;;;;;;23.20;49.90;;;;;;4930605;29;20510;-83
2022/08/06 14:30:20;;;;;;;;;;;23.20;50.90;;;;;;4931693;29;19937;-85
2022/08/06 14:32:46;;;;;;;;;;;23.10;49.60;;;;;;4965381;28;19919;-85
2022/08/06 14:35:15;;;;;;;;;;;22.90;50.30;;;;;;4948769;28;19918;-85
2022/08/06 14:37:44;;;;;;;;;;;22.70;50.80;;;;;;4933739;29;20370;-84
2022/08/06 14:40:10;;;;;;;;;;;22.50;52.50;;;;;;4946395;29;19910;-84
2022/08/06 14:45:20;;;;;;;;;;;22.30;51.60;;;;;;4964668;28;19965;-85
2022/08/06 14:47:46;;;;;;;;;;;22.20;51.80;;;;;;4917837;29;19911;-85
2022/08/06 14:50:12;;;;;;;;;;;22.20;52.10;;;;;;4946971;29;19946;-85
2022/08/06 14:52:38;;;;;;;;;;;22.20;51.20;;;;;;4933237;29;20340;-85
2022/08/06 14:55:04;;;;;;;;;;;22.10;51.80;;;;;;4932883;29;19914;-85
2022/08/06 14:57:30;;;;;;;;;;;22.10;52.20;;;;;;4951892;28;19937;-84
2022/08/06 14:59:55;;;;;;;;;;;22.10;51.60;;;;;;4937298;29;19910;-85
2022/08/06 15:02:21;;;;;;;;;;;22.00;50.90;;;;;;4919731;28;19994;-83
2022/08/06 15:04:47;;;;;;;;;;;21.90;52.50;;;;;;4948577;28;19926;-87
2022/08/06 15:07:13;;;;;;;;;;;21.90;52.00;;;;;;4931402;29;19914;-86
2022/08/06 15:09:39;;;;;;;;;;;21.90;52.40;;;;;;4917993;29;20013;-86
2022/08/06 15:12:05;;;;;;;;;;;21.90;52.00;;;;;;4930208;29;19926;-85
2022/08/06 15:14:31;;;;;;;;;;;21.90;51.50;;;;;;4916859;29;20525;-84
2022/08/06 15:16:56;;;;;;;;;;;21.90;51.40;;;;;;4933603;28;19921;-84
2022/08/06 15:19:22;;;;;;;;;;;21.90;51.70;;;;;;4938715;29;19922;-84
2022/08/06 15:21:48;;;;;;;;;;;21.80;52.10;;;;;;4917705;29;19937;-85
2022/08/06 15:24:14;;;;;;;;;;;21.90;50.20;;;;;;4932308;29;19967;-85
2022/08/06 15:26:39;;;;;;;;;;;21.90;50.50;;;;;;4929822;28;19914;-84
2022/08/06 15:29:06;;;;;;;;;;;21.80;50.50;;;;;;4952862;29;20361;-83
2022/08/06 15:31:32;;;;;;;;;;;21.80;50.80;;;;;;4948216;28;19914;-84
2022/08/06 15:33:58;;;;;;;;;;;21.70;50.40;;;;;;4937120;28;19910;-86
2022/08/06 15:36:26;;;;;;;;;;;21.70;51.30;;;;;;4939730;29;19910;-84
2022/08/06 15:38:53;;;;;;;;;;;21.60;51.60;;;;;;4949562;28;20009;-84
2022/08/06 15:41:20;;;;;;;;;;;21.60;52.10;;;;;;4942868;29;19911;-84
2022/08/06 15:43:46;;;;;;;;;;;21.60;51.60;;;;;;4935761;29;19918;-85
2022/08/06 15:46:13;;;;;;;;;;;21.60;51.00;;;;;;4936074;29;19910;-85
2022/08/06 15:48:38;;;;;;;;;;;21.60;50.10;;;;;;4962970;28;20574;-84
2022/08/06 15:51:04;;;;;;;;;;;21.60;50.90;;;;;;4948930;28;19915;-84
2022/08/06 15:53:30;;;;;;;;;;;21.50;50.80;;;;;;4948691;28;19915;-83
2022/08/06 15:55:56;;;;;;;;;;;21.60;50.70;;;;;;4941824;28;19954;-85
2022/08/06 15:58:22;;;;;;;;;;;21.50;49.90;;;;;;4953437;28;19911;-84
2022/08/06 16:00:47;;;;;;;;;;;21.50;51.30;;;;;;4946897;28;20009;-85
2022/08/06 16:03:13;;;;;;;;;;;21.40;51.20;;;;;;4916730;29;19995;-84
2022/08/06 16:05:40;;;;;;;;;;;21.40;51.10;;;;;;4920500;29;19914;-84
2022/08/06 16:08:06;;;;;;;;;;;21.40;51.90;;;;;;4932055;29;19921;-85
2022/08/06 16:10:32;;;;;;;;;;;21.30;51.90;;;;;;4924065;29;19921;-86
2022/08/06 16:12:58;;;;;;;;;;;21.30;51.70;;;;;;4931805;29;19914;-86
2022/08/06 16:15:24;;;;;;;;;;;21.30;50.80;;;;;;4959394;28;19968;-85
2022/08/06 16:17:49;;;;;;;;;;;21.30;51.90;;;;;;4942987;28;19918;-85
2022/08/06 16:20:16;;;;;;;;;;;21.30;52.30;;;;;;4953166;28;20329;-86
2022/08/06 16:22:42;;;;;;;;;;;21.20;52.30;;;;;;4931986;29;19911;-86
2022/08/06 16:25:08;;;;;;;;;;;21.20;51.90;;;;;;4939101;28;19918;-84
2022/08/06 16:27:33;;;;;;;;;;;21.20;51.60;;;;;;4948469;28;19960;-84
2022/08/06 16:29:59;;;;;;;;;;;21.20;50.80;;;;;;4948374;28;19918;-85
2022/08/06 16:32:25;;;;;;;;;;;21.20;52.00;;;;;;4951132;28;20706;-86
2022/08/06 16:34:54;;;;;;;;;;;21.10;51.60;;;;;;4934264;29;19958;-86
2022/08/06 16:37:20;;;;;;;;;;;21.10;52.60;;;;;;4949898;28;19938;-85
2022/08/06 16:39:46;;;;;;;;;;;21.00;52.00;;;;;;4951493;29;20337;-83
2022/08/06 16:42:12;;;;;;;;;;;21.00;51.90;;;;;;4935212;28;20443;-84
2022/08/06 16:44:37;;;;;;;;;;;20.90;51.50;;;;;;4931173;29;19918;-84
2022/08/06 16:47:03;;;;;;;;;;;20.90;51.60;;;;;;4921090;29;19926;-83
2022/08/06 16:49:29;;;;;;;;;;;20.90;51.60;;;;;;4948311;29;20005;-85
2022/08/06 16:51:55;;;;;;;;;;;20.80;51.70;;;;;;4935007;29;19922;-86
2022/08/06 16:54:21;;;;;;;;;;;20.80;52.10;;;;;;4950240;28;19911;-84
2022/08/06 16:56:46;;;;;;;;;;;20.70;52.10;;;;;;4928767;28;19921;-84
2022/08/06 16:59:12;;;;;;;;;;;20.70;51.30;;;;;;4900540;29;19914;-85
2022/08/06 17:01:39;;;;;;;;;;;20.70;52.50;;;;;;4940437;29;20009;-85
2022/08/06 17:04:05;;;;;;;;;;;20.60;52.40;;;;;;4931165;29;20431;-83
2022/08/06 17:06:31;;;;;;;;;;;20.60;52.20;;;;;;4941791;29;19922;-84
2022/08/06 17:08:58;;;;;;;;;;;20.60;51.80;;;;;;4934424;29;20400;-85
2022/08/06 17:11:24;;;;;;;;;;;20.50;51.60;;;;;;4950741;28;19957;-85
2022/08/06 17:13:49;;;;;;;;;;;20.50;52.20;;;;;;4957949;28;20585;-85
2022/08/06 17:16:15;;;;;;;;;;;20.50;51.90;;;;;;4918668;29;19957;-85
2022/08/06 17:18:41;;;;;;;;;;;20.40;52.30;;;;;;4931367;29;19910;-84
2022/08/06 17:21:07;;;;;;;;;;;20.40;52.30;;;;;;4933954;29;19910;-85
2022/08/06 17:23:32;;;;;;;;;;;20.40;52.70;;;;;;4934292;29;19914;-85
2022/08/06 17:25:58;;;;;;;;;;;20.40;53.20;;;;;;4944416;28;19911;-85
2022/08/06 17:28:24;;;;;;;;;;;20.30;52.60;;;;;;4932713;29;19921;-84
2022/08/06 17:30:50;;;;;;;;;;;20.30;52.20;;;;;;4901835;29;19922;-85
2022/08/06 17:33:15;;;;;;;;;;;20.30;52.60;;;;;;4930095;29;19911;-84
2022/08/06 17:35:45;;;;;;;;;;;20.30;52.70;;;;;;4964194;28;20419;-85
2022/08/06 17:38:11;;;;;;;;;;;20.30;53.20;;;;;;4924620;29;20006;-85
2022/08/06 17:40:37;;;;;;;;;;;20.30;52.60;;;;;;4935462;28;19989;-85
2022/08/06 17:43:06;;;;;;;;;;;20.20;52.90;;;;;;4930748;29;20404;-85
2022/08/06 17:45:33;;;;;;;;;;;20.20;52.60;;;;;;4933634;28;19910;-84
2022/08/06 17:47:59;;;;;;;;;;;20.10;53.10;;;;;;4934285;28;19961;-85
2022/08/06 17:50:24;;;;;;;;;;;20.10;53.40;;;;;;4933261;29;20013;-84
2022/08/06 17:52:50;;;;;;;;;;;20.10;53.00;;;;;;4934086;29;19919;-84
2022/08/06 17:55:16;;;;;;;;;;;20.00;53.40;;;;;;4947537;29;19922;-85
2022/08/06 17:57:41;;;;;;;;;;;20.00;53.90;;;;;;4915160;29;19914;-84
2022/08/06 18:00:09;;;;;;;;;;;19.90;54.10;;;;;;4930783;29;19915;-83
2022/08/06 18:02:37;;;;;;;;;;;19.90;54.80;;;;;;4932542;29;20277;-85
2022/08/06 18:05:03;;;;;;;;;;;19.90;54.20;;;;;;4933532;28;19918;-84
2022/08/06 18:07:29;;;;;;;;;;;19.90;54.20;;;;;;4934637;29;20296;-85
2022/08/06 18:12:39;;;;;;;;;;;19.80;54.30;;;;;;4936693;29;19921;-85
2022/08/06 18:15:05;;;;;;;;;;;19.70;54.70;;;;;;4946173;28;20006;-84
2022/08/06 18:17:31;;;;;;;;;;;19.60;55.30;;;;;;4929002;29;19977;-84
2022/08/06 18:19:56;;;;;;;;;;;19.60;55.30;;;;;;4915079;29;20042;-85
2022/08/06 18:22:22;;;;;;;;;;;19.60;55.60;;;;;;4929357;29;19950;-84
2022/08/06 18:24:48;;;;;;;;;;;19.50;55.50;;;;;;4929514;29;19950;-85
2022/08/06 18:27:14;;;;;;;;;;;19.40;56.50;;;;;;4963630;28;19910;-85
2022/08/06 18:29:39;;;;;;;;;;;19.40;56.00;;;;;;4946553;28;20030;-84
2022/08/06 18:32:05;;;;;;;;;;;19.40;55.80;;;;;;4965337;28;19918;-85
2022/08/06 18:34:31;;;;;;;;;;;19.30;56.30;;;;;;4952890;28;19998;-84
2022/08/06 18:36:57;;;;;;;;;;;19.20;56.10;;;;;;4954800;28;20368;-84
2022/08/06 18:39:23;;;;;;;;;;;19.20;56.50;;;;;;4934756;29;20464;-85
2022/08/06 18:41:49;;;;;;;;;;;19.20;57.00;;;;;;4935575;29;19919;-84
2022/08/06 18:44:15;;;;;;;;;;;19.10;56.90;;;;;;4933476;29;19914;-84
2022/08/06 18:46:40;;;;;;;;;;;19.00;58.10;;;;;;4934249;29;19970;-84
2022/08/06 18:49:06;;;;;;;;;;;19.00;57.30;;;;;;4918585;29;19915;-83